sensor_id;sensor_type;location;lat;lon;timestamp;P1;durP1;ratioP1;P2;durP2;ratioP2
4577;SDS011;2301;47.354;8.528;2022-10-16T00:09:47;4.53;;;2.10;;
4577;SDS011;2301;47.354;8.528;2022-10-16T00:16:26;6.60;;;2.07;;
4577;SDS011;2301;47.354;8.528;2022-10-16T01:12:20;4.17;;;2.40;;
4577;SDS011;2301;47.354;8.528;2022-10-16T01:15:14;3.90;;;2.00;;
4577;SDS011;2301;47.354;8.528;2022-10-16T01:18:05;6.10;;;2.20;;
4577;SDS011;2301;47.354;8.528;2022-10-16T01:21:05;4.57;;;2.00;;
4577;SDS011;2301;47.354;8.528;2022-10-16T01:24:31;4.73;;;2.00;;
4577;SDS011;2301;47.354;8.528;2022-10-16T01:27:47;2.47;;;2.20;;
4577;SDS011;2301;47.354;8.528;2022-10-16T01:30:37;5.30;;;2.03;;
4577;SDS011;2301;47.354;8.528;2022-10-16T01:53:23;4.70;;;2.07;;
4577;SDS011;2301;47.354;8.528;2022-10-16T01:55:52;3.17;;;2.00;;
4577;SDS011;2301;47.354;8.528;2022-10-16T01:58:24;4.93;;;2.00;;
4577;SDS011;2301;47.354;8.528;2022-10-16T02:02:01;3.60;;;1.63;;
4577;SDS011;2301;47.354;8.528;2022-10-16T02:04:38;7.70;;;2.70;;
4577;SDS011;2301;47.354;8.528;2022-10-16T02:07:33;3.17;;;1.90;;
4577;SDS011;2301;47.354;8.528;2022-10-16T02:10:18;9.03;;;2.53;;
4577;SDS011;2301;47.354;8.528;2022-10-16T02:13:45;6.33;;;2.03;;
4577;SDS011;2301;47.354;8.528;2022-10-16T02:16:36;8.30;;;1.70;;
4577;SDS011;2301;47.354;8.528;2022-10-16T02:23:16;4.13;;;1.80;;
4577;SDS011;2301;47.354;8.528;2022-10-16T02:25:55;1.97;;;1.50;;
4577;SDS011;2301;47.354;8.528;2022-10-16T02:28:26;3.47;;;1.87;;
4577;SDS011;2301;47.354;8.528;2022-10-16T02:31:00;3.83;;;1.73;;
4577;SDS011;2301;47.354;8.528;2022-10-16T02:33:58;5.43;;;2.20;;
4577;SDS011;2301;47.354;8.528;2022-10-16T02:36:51;17.77;;;2.77;;
4577;SDS011;2301;47.354;8.528;2022-10-16T02:39:43;9.60;;;2.67;;
4577;SDS011;2301;47.354;8.528;2022-10-16T02:42:31;11.63;;;1.93;;
4577;SDS011;2301;47.354;8.528;2022-10-16T02:45:03;9.83;;;2.20;;
4577;SDS011;2301;47.354;8.528;2022-10-16T02:47:31;6.27;;;2.20;;
4577;SDS011;2301;47.354;8.528;2022-10-16T02:49:59;13.40;;;2.10;;
4577;SDS011;2301;47.354;8.528;2022-10-16T02:52:28;6.37;;;2.10;;
4577;SDS011;2301;47.354;8.528;2022-10-16T02:54:55;10.63;;;1.97;;
4577;SDS011;2301;47.354;8.528;2022-10-16T02:57:25;3.37;;;1.63;;
4577;SDS011;2301;47.354;8.528;2022-10-16T02:59:58;7.13;;;2.10;;
4577;SDS011;2301;47.354;8.528;2022-10-16T03:02:25;4.20;;;1.70;;
4577;SDS011;2301;47.354;8.528;2022-10-16T03:04:52;5.27;;;1.53;;
4577;SDS011;2301;47.354;8.528;2022-10-16T03:07:31;21.57;;;2.67;;
4577;SDS011;2301;47.354;8.528;2022-10-16T03:16:51;10.80;;;2.30;;
4577;SDS011;2301;47.354;8.528;2022-10-16T03:19:19;15.30;;;2.40;;
4577;SDS011;2301;47.354;8.528;2022-10-16T03:21:51;11.17;;;2.00;;
4577;SDS011;2301;47.354;8.528;2022-10-16T03:24:18;8.27;;;2.90;;
4577;SDS011;2301;47.354;8.528;2022-10-16T03:26:46;9.50;;;2.20;;
4577;SDS011;2301;47.354;8.528;2022-10-16T03:29:15;12.40;;;2.07;;
4577;SDS011;2301;47.354;8.528;2022-10-16T03:31:59;5.13;;;1.97;;
4577;SDS011;2301;47.354;8.528;2022-10-16T03:34:38;7.77;;;2.00;;
4577;SDS011;2301;47.354;8.528;2022-10-16T03:37:05;3.10;;;1.63;;
4577;SDS011;2301;47.354;8.528;2022-10-16T03:39:32;9.20;;;1.60;;
4577;SDS011;2301;47.354;8.528;2022-10-16T03:42:00;4.40;;;1.67;;
4577;SDS011;2301;47.354;8.528;2022-10-16T03:44:27;8.67;;;1.60;;
4577;SDS011;2301;47.354;8.528;2022-10-16T03:46:54;5.13;;;1.70;;
4577;SDS011;2301;47.354;8.528;2022-10-16T03:49:25;6.93;;;1.50;;
4577;SDS011;2301;47.354;8.528;2022-10-16T03:51:52;7.07;;;1.70;;
4577;SDS011;2301;47.354;8.528;2022-10-16T03:54:19;7.47;;;1.70;;
4577;SDS011;2301;47.354;8.528;2022-10-16T03:56:47;5.63;;;1.60;;
4577;SDS011;2301;47.354;8.528;2022-10-16T03:59:14;10.20;;;1.60;;
4577;SDS011;2301;47.354;8.528;2022-10-16T04:01:41;3.17;;;1.40;;
4577;SDS011;2301;47.354;8.528;2022-10-16T04:04:08;6.40;;;1.57;;
4577;SDS011;2301;47.354;8.528;2022-10-16T04:06:37;2.40;;;1.80;;
4577;SDS011;2301;47.354;8.528;2022-10-16T04:09:03;1.40;;;1.30;;
4577;SDS011;2301;47.354;8.528;2022-10-16T04:11:31;2.23;;;1.43;;
4577;SDS011;2301;47.354;8.528;2022-10-16T04:13:58;4.97;;;1.50;;
4577;SDS011;2301;47.354;8.528;2022-10-16T04:16:27;2.40;;;1.63;;
4577;SDS011;2301;47.354;8.528;2022-10-16T04:18:57;4.93;;;1.53;;
4577;SDS011;2301;47.354;8.528;2022-10-16T04:21:24;1.87;;;1.60;;
4577;SDS011;2301;47.354;8.528;2022-10-16T04:23:53;4.10;;;1.57;;
4577;SDS011;2301;47.354;8.528;2022-10-16T04:26:20;2.80;;;1.70;;
4577;SDS011;2301;47.354;8.528;2022-10-16T04:28:47;4.00;;;1.50;;
4577;SDS011;2301;47.354;8.528;2022-10-16T04:31:14;4.87;;;1.60;;
4577;SDS011;2301;47.354;8.528;2022-10-16T04:33:42;5.17;;;1.57;;
4577;SDS011;2301;47.354;8.528;2022-10-16T04:36:17;2.23;;;1.23;;
4577;SDS011;2301;47.354;8.528;2022-10-16T04:38:44;4.90;;;1.80;;
4577;SDS011;2301;47.354;8.528;2022-10-16T04:41:13;4.87;;;1.70;;
4577;SDS011;2301;47.354;8.528;2022-10-16T04:43:40;4.90;;;1.50;;
4577;SDS011;2301;47.354;8.528;2022-10-16T04:46:08;8.77;;;1.60;;
4577;SDS011;2301;47.354;8.528;2022-10-16T04:48:41;3.50;;;1.80;;
4577;SDS011;2301;47.354;8.528;2022-10-16T04:51:10;3.83;;;1.40;;
4577;SDS011;2301;47.354;8.528;2022-10-16T04:53:38;3.30;;;1.50;;
4577;SDS011;2301;47.354;8.528;2022-10-16T04:56:05;1.73;;;1.40;;
4577;SDS011;2301;47.354;8.528;2022-10-16T04:58:39;3.90;;;1.47;;
4577;SDS011;2301;47.354;8.528;2022-10-16T05:01:08;2.30;;;1.50;;
4577;SDS011;2301;47.354;8.528;2022-10-16T05:03:35;5.30;;;1.80;;
4577;SDS011;2301;47.354;8.528;2022-10-16T05:06:08;3.83;;;1.40;;
4577;SDS011;2301;47.354;8.528;2022-10-16T05:08:35;2.23;;;1.50;;
4577;SDS011;2301;47.354;8.528;2022-10-16T05:11:03;2.00;;;1.73;;
4577;SDS011;2301;47.354;8.528;2022-10-16T05:13:30;1.40;;;1.30;;
4577;SDS011;2301;47.354;8.528;2022-10-16T05:15:58;5.80;;;1.30;;
4577;SDS011;2301;47.354;8.528;2022-10-16T05:18:25;4.50;;;1.70;;
4577;SDS011;2301;47.354;8.528;2022-10-16T05:20:52;4.10;;;1.40;;
4577;SDS011;2301;47.354;8.528;2022-10-16T05:23:19;4.40;;;1.40;;
4577;SDS011;2301;47.354;8.528;2022-10-16T05:25:51;15.33;;;1.60;;
4577;SDS011;2301;47.354;8.528;2022-10-16T05:28:19;4.50;;;1.50;;
4577;SDS011;2301;47.354;8.528;2022-10-16T05:30:46;4.40;;;1.40;;
4577;SDS011;2301;47.354;8.528;2022-10-16T05:33:15;3.93;;;1.70;;
4577;SDS011;2301;47.354;8.528;2022-10-16T05:35:42;1.53;;;1.40;;
4577;SDS011;2301;47.354;8.528;2022-10-16T05:38:10;2.67;;;1.33;;
4577;SDS011;2301;47.354;8.528;2022-10-16T05:40:37;1.37;;;1.27;;
4577;SDS011;2301;47.354;8.528;2022-10-16T05:43:30;2.57;;;1.60;;
4577;SDS011;2301;47.354;8.528;2022-10-16T05:46:00;8.50;;;1.90;;
4577;SDS011;2301;47.354;8.528;2022-10-16T05:48:29;3.00;;;1.23;;
4577;SDS011;2301;47.354;8.528;2022-10-16T05:50:57;3.97;;;1.50;;
4577;SDS011;2301;47.354;8.528;2022-10-16T05:53:25;2.57;;;1.60;;
4577;SDS011;2301;47.354;8.528;2022-10-16T05:55:55;6.00;;;1.60;;
4577;SDS011;2301;47.354;8.528;2022-10-16T05:58:23;1.40;;;1.30;;
4577;SDS011;2301;47.354;8.528;2022-10-16T06:00:54;1.40;;;1.30;;
4577;SDS011;2301;47.354;8.528;2022-10-16T06:03:25;3.80;;;1.50;;
4577;SDS011;2301;47.354;8.528;2022-10-16T06:05:54;2.40;;;1.47;;
4577;SDS011;2301;47.354;8.528;2022-10-16T06:08:22;1.97;;;1.80;;
4577;SDS011;2301;47.354;8.528;2022-10-16T06:10:59;6.40;;;1.50;;
4577;SDS011;2301;47.354;8.528;2022-10-16T06:13:28;6.37;;;1.50;;
4577;SDS011;2301;47.354;8.528;2022-10-16T06:15:57;4.70;;;1.33;;
4577;SDS011;2301;47.354;8.528;2022-10-16T06:18:24;1.77;;;1.57;;
4577;SDS011;2301;47.354;8.528;2022-10-16T06:20:54;5.87;;;1.53;;
4577;SDS011;2301;47.354;8.528;2022-10-16T06:23:21;11.30;;;1.70;;
4577;SDS011;2301;47.354;8.528;2022-10-16T06:25:49;6.70;;;1.80;;
4577;SDS011;2301;47.354;8.528;2022-10-16T06:28:28;5.13;;;1.60;;
4577;SDS011;2301;47.354;8.528;2022-10-16T06:54:57;5.00;;;2.20;;
4577;SDS011;2301;47.354;8.528;2022-10-16T06:57:30;3.87;;;1.73;;
4577;SDS011;2301;47.354;8.528;2022-10-16T07:00:22;6.90;;;1.67;;
4577;SDS011;2301;47.354;8.528;2022-10-16T07:03:14;2.33;;;1.30;;
4577;SDS011;2301;47.354;8.528;2022-10-16T07:06:21;2.97;;;1.30;;
4577;SDS011;2301;47.354;8.528;2022-10-16T07:08:52;9.70;;;1.70;;
4577;SDS011;2301;47.354;8.528;2022-10-16T07:14:50;3.13;;;1.50;;
4577;SDS011;2301;47.354;8.528;2022-10-16T07:17:21;2.87;;;1.80;;
4577;SDS011;2301;47.354;8.528;2022-10-16T07:19:50;8.40;;;1.57;;
4577;SDS011;2301;47.354;8.528;2022-10-16T07:26:14;3.37;;;1.53;;
4577;SDS011;2301;47.354;8.528;2022-10-16T07:28:59;2.50;;;1.43;;
4577;SDS011;2301;47.354;8.528;2022-10-16T07:35:14;1.90;;;1.40;;
4577;SDS011;2301;47.354;8.528;2022-10-16T07:37:45;4.63;;;2.10;;
4577;SDS011;2301;47.354;8.528;2022-10-16T07:40:44;3.37;;;1.77;;
4577;SDS011;2301;47.354;8.528;2022-10-16T07:43:16;7.23;;;1.70;;
4577;SDS011;2301;47.354;8.528;2022-10-16T07:45:54;3.43;;;2.07;;
4577;SDS011;2301;47.354;8.528;2022-10-16T07:48:28;2.40;;;1.83;;
4577;SDS011;2301;47.354;8.528;2022-10-16T07:51:05;8.93;;;2.97;;
4577;SDS011;2301;47.354;8.528;2022-10-16T07:53:33;4.80;;;1.50;;
4577;SDS011;2301;47.354;8.528;2022-10-16T07:56:00;6.83;;;1.90;;
4577;SDS011;2301;47.354;8.528;2022-10-16T07:58:29;10.63;;;1.90;;
4577;SDS011;2301;47.354;8.528;2022-10-16T08:00:57;2.50;;;1.70;;
4577;SDS011;2301;47.354;8.528;2022-10-16T08:03:25;2.20;;;1.73;;
4577;SDS011;2301;47.354;8.528;2022-10-16T08:05:52;8.83;;;2.40;;
4577;SDS011;2301;47.354;8.528;2022-10-16T08:08:20;4.50;;;2.30;;
4577;SDS011;2301;47.354;8.528;2022-10-16T08:10:47;4.10;;;2.20;;
4577;SDS011;2301;47.354;8.528;2022-10-16T08:13:14;4.60;;;2.37;;
4577;SDS011;2301;47.354;8.528;2022-10-16T08:15:41;7.10;;;2.30;;
4577;SDS011;2301;47.354;8.528;2022-10-16T08:18:09;4.97;;;2.63;;
4577;SDS011;2301;47.354;8.528;2022-10-16T08:21:15;5.13;;;1.60;;
4577;SDS011;2301;47.354;8.528;2022-10-16T08:23:44;5.23;;;1.80;;
4577;SDS011;2301;47.354;8.528;2022-10-16T08:26:12;4.10;;;1.70;;
4577;SDS011;2301;47.354;8.528;2022-10-16T08:28:39;2.07;;;1.40;;
4577;SDS011;2301;47.354;8.528;2022-10-16T08:31:07;2.00;;;1.63;;
4577;SDS011;2301;47.354;8.528;2022-10-16T08:33:35;8.00;;;1.73;;
4577;SDS011;2301;47.354;8.528;2022-10-16T08:36:02;1.97;;;1.60;;
4577;SDS011;2301;47.354;8.528;2022-10-16T08:38:30;2.63;;;1.73;;
4577;SDS011;2301;47.354;8.528;2022-10-16T08:41:01;4.03;;;1.60;;
4577;SDS011;2301;47.354;8.528;2022-10-16T08:43:43;4.20;;;1.50;;
4577;SDS011;2301;47.354;8.528;2022-10-16T08:46:31;11.10;;;1.60;;
4577;SDS011;2301;47.354;8.528;2022-10-16T08:49:07;3.43;;;1.77;;
4577;SDS011;2301;47.354;8.528;2022-10-16T08:51:38;5.00;;;1.60;;
4577;SDS011;2301;47.354;8.528;2022-10-16T08:54:08;3.73;;;1.50;;
4577;SDS011;2301;47.354;8.528;2022-10-16T08:56:46;2.97;;;1.47;;
4577;SDS011;2301;47.354;8.528;2022-10-16T08:59:13;4.70;;;2.10;;
4577;SDS011;2301;47.354;8.528;2022-10-16T09:01:43;1.80;;;1.57;;
4577;SDS011;2301;47.354;8.528;2022-10-16T09:04:33;4.40;;;1.80;;
4577;SDS011;2301;47.354;8.528;2022-10-16T09:07:26;5.73;;;1.57;;
4577;SDS011;2301;47.354;8.528;2022-10-16T09:12:55;2.90;;;1.43;;
4577;SDS011;2301;47.354;8.528;2022-10-16T09:15:29;5.77;;;1.87;;
4577;SDS011;2301;47.354;8.528;2022-10-16T09:18:03;7.03;;;1.60;;
4577;SDS011;2301;47.354;8.528;2022-10-16T09:20:38;4.60;;;1.33;;
4577;SDS011;2301;47.354;8.528;2022-10-16T09:23:14;2.67;;;1.50;;
4577;SDS011;2301;47.354;8.528;2022-10-16T09:25:44;9.03;;;1.90;;
4577;SDS011;2301;47.354;8.528;2022-10-16T09:28:15;2.53;;;1.47;;
4577;SDS011;2301;47.354;8.528;2022-10-16T09:30:42;2.80;;;1.60;;
4577;SDS011;2301;47.354;8.528;2022-10-16T09:33:10;4.80;;;1.90;;
4577;SDS011;2301;47.354;8.528;2022-10-16T09:35:39;3.03;;;1.67;;
4577;SDS011;2301;47.354;8.528;2022-10-16T09:38:08;3.77;;;1.53;;
4577;SDS011;2301;47.354;8.528;2022-10-16T09:40:46;2.07;;;1.57;;
4577;SDS011;2301;47.354;8.528;2022-10-16T09:43:18;5.33;;;1.50;;
4577;SDS011;2301;47.354;8.528;2022-10-16T09:45:54;3.60;;;1.77;;
4577;SDS011;2301;47.354;8.528;2022-10-16T09:48:23;5.57;;;1.40;;
4577;SDS011;2301;47.354;8.528;2022-10-16T09:50:58;1.80;;;1.40;;
4577;SDS011;2301;47.354;8.528;2022-10-16T09:53:26;2.60;;;1.80;;
4577;SDS011;2301;47.354;8.528;2022-10-16T09:56:05;4.60;;;1.83;;
4577;SDS011;2301;47.354;8.528;2022-10-16T09:58:33;1.50;;;1.40;;
4577;SDS011;2301;47.354;8.528;2022-10-16T10:01:00;6.80;;;1.70;;
4577;SDS011;2301;47.354;8.528;2022-10-16T10:03:34;4.70;;;1.63;;
4577;SDS011;2301;47.354;8.528;2022-10-16T10:06:06;1.43;;;1.30;;
4577;SDS011;2301;47.354;8.528;2022-10-16T10:08:52;9.23;;;2.43;;
4577;SDS011;2301;47.354;8.528;2022-10-16T10:11:43;9.60;;;2.63;;
4577;SDS011;2301;47.354;8.528;2022-10-16T10:14:18;18.07;;;2.17;;
4577;SDS011;2301;47.354;8.528;2022-10-16T10:17:02;8.60;;;2.07;;
4577;SDS011;2301;47.354;8.528;2022-10-16T10:19:39;2.50;;;1.60;;
4577;SDS011;2301;47.354;8.528;2022-10-16T10:24:55;3.10;;;1.73;;
4577;SDS011;2301;47.354;8.528;2022-10-16T10:27:25;9.00;;;1.63;;
4577;SDS011;2301;47.354;8.528;2022-10-16T10:30:01;3.63;;;1.50;;
4577;SDS011;2301;47.354;8.528;2022-10-16T10:32:35;1.93;;;1.80;;
4577;SDS011;2301;47.354;8.528;2022-10-16T10:35:12;16.83;;;12.20;;
4577;SDS011;2301;47.354;8.528;2022-10-16T10:40:34;10.77;;;5.10;;
4577;SDS011;2301;47.354;8.528;2022-10-16T10:43:15;4.00;;;3.60;;
4577;SDS011;2301;47.354;8.528;2022-10-16T10:45:57;13.27;;;10.23;;
4577;SDS011;2301;47.354;8.528;2022-10-16T10:48:35;21.30;;;12.13;;
4577;SDS011;2301;47.354;8.528;2022-10-16T10:51:18;8.50;;;6.50;;
4577;SDS011;2301;47.354;8.528;2022-10-16T10:53:50;24.73;;;13.13;;
4577;SDS011;2301;47.354;8.528;2022-10-16T10:56:30;45.87;;;30.00;;
4577;SDS011;2301;47.354;8.528;2022-10-16T10:59:13;33.73;;;23.07;;
4577;SDS011;2301;47.354;8.528;2022-10-16T11:02:10;21.03;;;12.13;;
4577;SDS011;2301;47.354;8.528;2022-10-16T11:07:54;12.20;;;7.80;;
4577;SDS011;2301;47.354;8.528;2022-10-16T11:10:25;13.70;;;8.50;;
4577;SDS011;2301;47.354;8.528;2022-10-16T11:12:56;13.20;;;7.40;;
4577;SDS011;2301;47.354;8.528;2022-10-16T11:15:31;14.13;;;8.00;;
4577;SDS011;2301;47.354;8.528;2022-10-16T11:18:03;10.70;;;6.00;;
4577;SDS011;2301;47.354;8.528;2022-10-16T11:20:34;12.07;;;5.80;;
4577;SDS011;2301;47.354;8.528;2022-10-16T11:23:05;11.00;;;4.60;;
4577;SDS011;2301;47.354;8.528;2022-10-16T11:25:39;17.23;;;5.20;;
4577;SDS011;2301;47.354;8.528;2022-10-16T11:28:10;3.60;;;2.30;;
4577;SDS011;2301;47.354;8.528;2022-10-16T11:30:40;4.03;;;2.77;;
4577;SDS011;2301;47.354;8.528;2022-10-16T11:33:18;7.87;;;2.70;;
4577;SDS011;2301;47.354;8.528;2022-10-16T11:35:51;5.67;;;3.83;;
4577;SDS011;2301;47.354;8.528;2022-10-16T11:38:24;12.37;;;4.40;;
4577;SDS011;2301;47.354;8.528;2022-10-16T11:40:56;4.70;;;2.83;;
4577;SDS011;2301;47.354;8.528;2022-10-16T11:43:29;12.00;;;2.73;;
4577;SDS011;2301;47.354;8.528;2022-10-16T11:46:04;4.00;;;2.90;;
4577;SDS011;2301;47.354;8.528;2022-10-16T11:48:38;9.00;;;3.20;;
4577;SDS011;2301;47.354;8.528;2022-10-16T11:51:11;10.53;;;2.70;;
4577;SDS011;2301;47.354;8.528;2022-10-16T11:53:45;4.80;;;3.10;;
4577;SDS011;2301;47.354;8.528;2022-10-16T11:56:17;4.63;;;2.40;;
4577;SDS011;2301;47.354;8.528;2022-10-16T11:58:49;6.93;;;2.63;;
4577;SDS011;2301;47.354;8.528;2022-10-16T12:01:22;8.73;;;2.40;;
4577;SDS011;2301;47.354;8.528;2022-10-16T12:03:59;9.23;;;2.73;;
4577;SDS011;2301;47.354;8.528;2022-10-16T12:06:34;2.90;;;2.30;;
4577;SDS011;2301;47.354;8.528;2022-10-16T12:09:09;2.97;;;2.60;;
4577;SDS011;2301;47.354;8.528;2022-10-16T12:11:45;8.50;;;2.63;;
4577;SDS011;2301;47.354;8.528;2022-10-16T12:14:20;2.90;;;2.43;;
4577;SDS011;2301;47.354;8.528;2022-10-16T12:16:59;13.80;;;8.60;;
4577;SDS011;2301;47.354;8.528;2022-10-16T12:19:32;5.90;;;5.20;;
4577;SDS011;2301;47.354;8.528;2022-10-16T12:21:59;10.80;;;6.07;;
4577;SDS011;2301;47.354;8.528;2022-10-16T12:24:32;6.20;;;2.77;;
4577;SDS011;2301;47.354;8.528;2022-10-16T12:27:01;8.50;;;3.10;;
4577;SDS011;2301;47.354;8.528;2022-10-16T12:29:33;12.90;;;4.10;;
4577;SDS011;2301;47.354;8.528;2022-10-16T12:32:04;8.93;;;5.70;;
4577;SDS011;2301;47.354;8.528;2022-10-16T12:34:37;8.50;;;7.60;;
4577;SDS011;2301;47.354;8.528;2022-10-16T12:37:10;2.33;;;1.77;;
4577;SDS011;2301;47.354;8.528;2022-10-16T12:39:40;16.27;;;6.13;;
4577;SDS011;2301;47.354;8.528;2022-10-16T12:42:22;6.53;;;5.90;;
4577;SDS011;2301;47.354;8.528;2022-10-16T12:44:56;11.00;;;5.43;;
4577;SDS011;2301;47.354;8.528;2022-10-16T12:47:24;7.80;;;4.27;;
4577;SDS011;2301;47.354;8.528;2022-10-16T12:50:21;4.93;;;4.00;;
4577;SDS011;2301;47.354;8.528;2022-10-16T12:52:51;3.50;;;2.90;;
4577;SDS011;2301;47.354;8.528;2022-10-16T12:55:18;5.60;;;3.63;;
4577;SDS011;2301;47.354;8.528;2022-10-16T12:57:50;3.50;;;3.20;;
4577;SDS011;2301;47.354;8.528;2022-10-16T13:00:33;5.53;;;2.70;;
4577;SDS011;2301;47.354;8.528;2022-10-16T13:06:20;2.20;;;2.10;;
4577;SDS011;2301;47.354;8.528;2022-10-16T13:09:01;2.10;;;1.63;;
4577;SDS011;2301;47.354;8.528;2022-10-16T13:11:47;3.20;;;1.77;;
4577;SDS011;2301;47.354;8.528;2022-10-16T13:14:31;8.47;;;2.53;;
4577;SDS011;2301;47.354;8.528;2022-10-16T13:17:15;3.90;;;2.13;;
4577;SDS011;2301;47.354;8.528;2022-10-16T13:19:51;2.30;;;2.00;;
4577;SDS011;2301;47.354;8.528;2022-10-16T13:22:29;2.33;;;2.13;;
4577;SDS011;2301;47.354;8.528;2022-10-16T13:25:08;4.00;;;1.80;;
4577;SDS011;2301;47.354;8.528;2022-10-16T13:27:46;6.40;;;1.70;;
4577;SDS011;2301;47.354;8.528;2022-10-16T13:30:20;2.57;;;2.17;;
4577;SDS011;2301;47.354;8.528;2022-10-16T13:32:50;3.10;;;2.23;;
4577;SDS011;2301;47.354;8.528;2022-10-16T13:35:25;2.07;;;1.97;;
4577;SDS011;2301;47.354;8.528;2022-10-16T13:38:04;2.10;;;1.90;;
4577;SDS011;2301;47.354;8.528;2022-10-16T13:40:32;3.00;;;2.17;;
4577;SDS011;2301;47.354;8.528;2022-10-16T13:42:59;7.13;;;2.27;;
4577;SDS011;2301;47.354;8.528;2022-10-16T13:45:27;2.43;;;2.23;;
4577;SDS011;2301;47.354;8.528;2022-10-16T13:48:01;2.50;;;2.30;;
4577;SDS011;2301;47.354;8.528;2022-10-16T13:50:28;2.33;;;2.13;;
4577;SDS011;2301;47.354;8.528;2022-10-16T13:53:04;2.47;;;1.87;;
4577;SDS011;2301;47.354;8.528;2022-10-16T13:55:31;3.47;;;2.10;;
4577;SDS011;2301;47.354;8.528;2022-10-16T13:58:05;1.97;;;1.60;;
4577;SDS011;2301;47.354;8.528;2022-10-16T14:00:33;8.83;;;1.90;;
4577;SDS011;2301;47.354;8.528;2022-10-16T14:03:01;2.17;;;1.70;;
4577;SDS011;2301;47.354;8.528;2022-10-16T14:05:30;3.23;;;2.30;;
4577;SDS011;2301;47.354;8.528;2022-10-16T14:07:57;6.83;;;2.17;;
4577;SDS011;2301;47.354;8.528;2022-10-16T14:10:27;4.23;;;1.70;;
4577;SDS011;2301;47.354;8.528;2022-10-16T14:12:59;3.03;;;1.80;;
4577;SDS011;2301;47.354;8.528;2022-10-16T14:15:28;2.30;;;2.20;;
4577;SDS011;2301;47.354;8.528;2022-10-16T14:17:56;2.53;;;2.17;;
4577;SDS011;2301;47.354;8.528;2022-10-16T14:20:26;3.70;;;2.07;;
4577;SDS011;2301;47.354;8.528;2022-10-16T14:22:58;3.60;;;1.67;;
4577;SDS011;2301;47.354;8.528;2022-10-16T14:25:28;2.40;;;2.20;;
4577;SDS011;2301;47.354;8.528;2022-10-16T14:27:57;3.27;;;1.83;;
4577;SDS011;2301;47.354;8.528;2022-10-16T14:30:27;2.20;;;1.90;;
4577;SDS011;2301;47.354;8.528;2022-10-16T14:32:55;4.30;;;2.10;;
4577;SDS011;2301;47.354;8.528;2022-10-16T14:35:24;3.00;;;1.73;;
4577;SDS011;2301;47.354;8.528;2022-10-16T14:37:53;2.03;;;1.60;;
4577;SDS011;2301;47.354;8.528;2022-10-16T14:40:20;2.53;;;1.83;;
4577;SDS011;2301;47.354;8.528;2022-10-16T14:42:51;1.80;;;1.70;;
4577;SDS011;2301;47.354;8.528;2022-10-16T14:45:19;5.07;;;1.60;;
4577;SDS011;2301;47.354;8.528;2022-10-16T14:47:48;11.13;;;1.63;;
4577;SDS011;2301;47.354;8.528;2022-10-16T14:50:16;3.20;;;2.23;;
4577;SDS011;2301;47.354;8.528;2022-10-16T14:52:43;4.63;;;1.97;;
4577;SDS011;2301;47.354;8.528;2022-10-16T14:55:10;3.63;;;2.10;;
4577;SDS011;2301;47.354;8.528;2022-10-16T14:57:37;3.43;;;2.00;;
4577;SDS011;2301;47.354;8.528;2022-10-16T15:00:09;4.23;;;2.90;;
4577;SDS011;2301;47.354;8.528;2022-10-16T15:02:42;5.27;;;2.30;;
4577;SDS011;2301;47.354;8.528;2022-10-16T15:05:14;5.40;;;2.70;;
4577;SDS011;2301;47.354;8.528;2022-10-16T15:07:42;6.10;;;2.80;;
4577;SDS011;2301;47.354;8.528;2022-10-16T15:10:10;7.43;;;2.57;;
4577;SDS011;2301;47.354;8.528;2022-10-16T15:12:37;6.57;;;2.57;;
4577;SDS011;2301;47.354;8.528;2022-10-16T15:18:05;4.17;;;2.10;;
4577;SDS011;2301;47.354;8.528;2022-10-16T15:20:33;4.50;;;2.20;;
4577;SDS011;2301;47.354;8.528;2022-10-16T15:23:02;3.50;;;2.43;;
4577;SDS011;2301;47.354;8.528;2022-10-16T15:25:33;5.53;;;2.77;;
4577;SDS011;2301;47.354;8.528;2022-10-16T15:28:03;2.73;;;2.20;;
4577;SDS011;2301;47.354;8.528;2022-10-16T15:30:30;6.77;;;2.30;;
4577;SDS011;2301;47.354;8.528;2022-10-16T15:32:57;8.50;;;2.10;;
4577;SDS011;2301;47.354;8.528;2022-10-16T15:35:26;3.77;;;2.10;;
4577;SDS011;2301;47.354;8.528;2022-10-16T15:37:53;3.30;;;1.90;;
4577;SDS011;2301;47.354;8.528;2022-10-16T15:40:20;11.90;;;2.47;;
4577;SDS011;2301;47.354;8.528;2022-10-16T15:42:48;9.27;;;3.20;;
4577;SDS011;2301;47.354;8.528;2022-10-16T15:45:16;4.70;;;2.20;;
4577;SDS011;2301;47.354;8.528;2022-10-16T15:47:44;3.00;;;1.90;;
4577;SDS011;2301;47.354;8.528;2022-10-16T15:50:11;4.93;;;1.80;;
4577;SDS011;2301;47.354;8.528;2022-10-16T15:52:41;7.30;;;3.30;;
4577;SDS011;2301;47.354;8.528;2022-10-16T15:55:08;4.67;;;2.40;;
4577;SDS011;2301;47.354;8.528;2022-10-16T15:57:37;6.83;;;2.47;;
4577;SDS011;2301;47.354;8.528;2022-10-16T16:00:06;5.33;;;2.63;;
4577;SDS011;2301;47.354;8.528;2022-10-16T16:02:34;14.43;;;2.53;;
4577;SDS011;2301;47.354;8.528;2022-10-16T16:05:01;3.07;;;2.40;;
4577;SDS011;2301;47.354;8.528;2022-10-16T16:07:31;9.20;;;2.23;;
4577;SDS011;2301;47.354;8.528;2022-10-16T16:10:00;12.03;;;6.40;;
4577;SDS011;2301;47.354;8.528;2022-10-16T16:12:27;6.23;;;2.60;;
4577;SDS011;2301;47.354;8.528;2022-10-16T16:14:54;6.20;;;2.30;;
4577;SDS011;2301;47.354;8.528;2022-10-16T16:17:21;10.33;;;3.00;;
4577;SDS011;2301;47.354;8.528;2022-10-16T16:19:49;9.10;;;2.73;;
4577;SDS011;2301;47.354;8.528;2022-10-16T16:22:16;10.43;;;3.80;;
4577;SDS011;2301;47.354;8.528;2022-10-16T16:24:43;3.83;;;2.77;;
4577;SDS011;2301;47.354;8.528;2022-10-16T16:27:11;7.80;;;2.30;;
4577;SDS011;2301;47.354;8.528;2022-10-16T16:29:39;14.30;;;3.67;;
4577;SDS011;2301;47.354;8.528;2022-10-16T16:32:06;7.30;;;2.67;;
4577;SDS011;2301;47.354;8.528;2022-10-16T16:34:33;11.10;;;3.50;;
4577;SDS011;2301;47.354;8.528;2022-10-16T16:37:00;12.10;;;2.90;;
4577;SDS011;2301;47.354;8.528;2022-10-16T16:39:27;7.00;;;2.40;;
4577;SDS011;2301;47.354;8.528;2022-10-16T16:41:55;5.03;;;2.37;;
4577;SDS011;2301;47.354;8.528;2022-10-16T16:44:23;8.40;;;2.13;;
4577;SDS011;2301;47.354;8.528;2022-10-16T16:46:50;9.77;;;2.47;;
4577;SDS011;2301;47.354;8.528;2022-10-16T16:49:17;5.87;;;2.57;;
4577;SDS011;2301;47.354;8.528;2022-10-16T16:51:44;5.33;;;2.47;;
4577;SDS011;2301;47.354;8.528;2022-10-16T16:54:11;4.40;;;2.43;;
4577;SDS011;2301;47.354;8.528;2022-10-16T16:56:39;13.50;;;3.20;;
4577;SDS011;2301;47.354;8.528;2022-10-16T16:59:10;4.57;;;2.47;;
4577;SDS011;2301;47.354;8.528;2022-10-16T17:01:41;5.47;;;2.70;;
4577;SDS011;2301;47.354;8.528;2022-10-16T17:04:08;5.63;;;2.80;;
4577;SDS011;2301;47.354;8.528;2022-10-16T17:06:36;7.20;;;2.47;;
4577;SDS011;2301;47.354;8.528;2022-10-16T17:09:05;24.83;;;2.57;;
4577;SDS011;2301;47.354;8.528;2022-10-16T17:11:33;6.67;;;3.20;;
4577;SDS011;2301;47.354;8.528;2022-10-16T17:14:00;9.90;;;2.63;;
4577;SDS011;2301;47.354;8.528;2022-10-16T17:16:28;9.10;;;2.87;;
4577;SDS011;2301;47.354;8.528;2022-10-16T17:19:00;8.60;;;2.90;;
4577;SDS011;2301;47.354;8.528;2022-10-16T17:21:27;4.93;;;2.57;;
4577;SDS011;2301;47.354;8.528;2022-10-16T17:23:54;7.73;;;2.83;;
4577;SDS011;2301;47.354;8.528;2022-10-16T17:26:21;7.90;;;2.70;;
4577;SDS011;2301;47.354;8.528;2022-10-16T17:28:50;5.93;;;2.77;;
4577;SDS011;2301;47.354;8.528;2022-10-16T17:31:19;8.40;;;2.90;;
4577;SDS011;2301;47.354;8.528;2022-10-16T17:33:47;10.87;;;2.80;;
4577;SDS011;2301;47.354;8.528;2022-10-16T17:36:17;5.53;;;2.60;;
4577;SDS011;2301;47.354;8.528;2022-10-16T17:38:44;8.20;;;3.50;;
4577;SDS011;2301;47.354;8.528;2022-10-16T17:41:12;5.57;;;2.80;;
4577;SDS011;2301;47.354;8.528;2022-10-16T17:43:40;17.10;;;2.90;;
4577;SDS011;2301;47.354;8.528;2022-10-16T17:46:08;13.73;;;3.30;;
4577;SDS011;2301;47.354;8.528;2022-10-16T17:48:38;6.30;;;2.80;;
4577;SDS011;2301;47.354;8.528;2022-10-16T17:51:06;8.80;;;3.13;;
4577;SDS011;2301;47.354;8.528;2022-10-16T17:53:35;14.00;;;3.40;;
4577;SDS011;2301;47.354;8.528;2022-10-16T17:56:03;11.80;;;3.47;;
4577;SDS011;2301;47.354;8.528;2022-10-16T17:58:30;8.87;;;3.27;;
4577;SDS011;2301;47.354;8.528;2022-10-16T18:00:58;14.87;;;4.30;;
4577;SDS011;2301;47.354;8.528;2022-10-16T18:03:25;8.00;;;4.40;;
4577;SDS011;2301;47.354;8.528;2022-10-16T18:05:53;16.97;;;4.83;;
4577;SDS011;2301;47.354;8.528;2022-10-16T18:08:20;9.77;;;4.27;;
4577;SDS011;2301;47.354;8.528;2022-10-16T18:10:48;8.30;;;4.00;;
4577;SDS011;2301;47.354;8.528;2022-10-16T18:13:16;8.23;;;3.63;;
4577;SDS011;2301;47.354;8.528;2022-10-16T18:15:43;9.67;;;3.17;;